sensor_id;sensor_type;location;lat;lon;timestamp;P1;durP1;ratioP1;P2;durP2;ratioP2
10295;SDS011;5193;51.032;6.356;2023-01-06T00:00:23;1.80;;;0.60;;
10295;SDS011;5193;51.032;6.356;2023-01-06T00:02:49;2.50;;;0.93;;
10295;SDS011;5193;51.032;6.356;2023-01-06T00:05:15;1.80;;;0.80;;
10295;SDS011;5193;51.032;6.356;2023-01-06T00:07:40;1.17;;;0.80;;
10295;SDS011;5193;51.032;6.356;2023-01-06T00:10:07;2.33;;;0.80;;
10295;SDS011;5193;51.032;6.356;2023-01-06T00:12:34;2.30;;;0.80;;
10295;SDS011;5193;51.032;6.356;2023-01-06T00:15:00;2.37;;;0.87;;
10295;SDS011;5193;51.032;6.356;2023-01-06T00:17:25;4.47;;;1.00;;
10295;SDS011;5193;51.032;6.356;2023-01-06T00:19:51;3.93;;;1.20;;
10295;SDS011;5193;51.032;6.356;2023-01-06T00:22:17;3.57;;;0.80;;
10295;SDS011;5193;51.032;6.356;2023-01-06T00:24:42;4.00;;;0.90;;
10295;SDS011;5193;51.032;6.356;2023-01-06T00:27:08;2.17;;;0.80;;
10295;SDS011;5193;51.032;6.356;2023-01-06T00:29:34;1.20;;;0.83;;
10295;SDS011;5193;51.032;6.356;2023-01-06T00:31:59;1.70;;;1.20;;
10295;SDS011;5193;51.032;6.356;2023-01-06T00:34:26;4.43;;;1.20;;
10295;SDS011;5193;51.032;6.356;2023-01-06T00:36:52;2.50;;;1.27;;
10295;SDS011;5193;51.032;6.356;2023-01-06T00:39:18;3.77;;;1.20;;
10295;SDS011;5193;51.032;6.356;2023-01-06T00:41:44;3.27;;;1.23;;
10295;SDS011;5193;51.032;6.356;2023-01-06T00:44:36;2.10;;;1.23;;
10295;SDS011;5193;51.032;6.356;2023-01-06T00:47:03;2.93;;;1.30;;
10295;SDS011;5193;51.032;6.356;2023-01-06T00:49:31;2.57;;;1.20;;
10295;SDS011;5193;51.032;6.356;2023-01-06T00:51:57;3.27;;;1.43;;
10295;SDS011;5193;51.032;6.356;2023-01-06T00:54:23;4.20;;;1.30;;
10295;SDS011;5193;51.032;6.356;2023-01-06T00:56:50;2.43;;;1.27;;
10295;SDS011;5193;51.032;6.356;2023-01-06T00:59:21;9.47;;;1.63;;
10295;SDS011;5193;51.032;6.356;2023-01-06T01:01:48;3.43;;;1.50;;
10295;SDS011;5193;51.032;6.356;2023-01-06T01:04:15;3.20;;;1.83;;
10295;SDS011;5193;51.032;6.356;2023-01-06T01:06:42;6.33;;;1.60;;
10295;SDS011;5193;51.032;6.356;2023-01-06T01:09:09;3.00;;;1.50;;
10295;SDS011;5193;51.032;6.356;2023-01-06T01:11:38;5.73;;;1.80;;
10295;SDS011;5193;51.032;6.356;2023-01-06T01:14:21;4.37;;;1.40;;
10295;SDS011;5193;51.032;6.356;2023-01-06T01:16:47;5.57;;;1.40;;
10295;SDS011;5193;51.032;6.356;2023-01-06T01:19:13;9.90;;;1.87;;
10295;SDS011;5193;51.032;6.356;2023-01-06T01:21:39;7.23;;;1.30;;
10295;SDS011;5193;51.032;6.356;2023-01-06T01:24:05;3.67;;;1.70;;
10295;SDS011;5193;51.032;6.356;2023-01-06T01:26:31;4.93;;;1.47;;
10295;SDS011;5193;51.032;6.356;2023-01-06T01:28:56;5.50;;;1.40;;
10295;SDS011;5193;51.032;6.356;2023-01-06T01:31:22;3.20;;;1.67;;
10295;SDS011;5193;51.032;6.356;2023-01-06T01:33:47;3.93;;;1.67;;
10295;SDS011;5193;51.032;6.356;2023-01-06T01:36:14;6.70;;;1.40;;
10295;SDS011;5193;51.032;6.356;2023-01-06T01:38:41;5.50;;;1.60;;
10295;SDS011;5193;51.032;6.356;2023-01-06T01:41:08;3.03;;;1.40;;
10295;SDS011;5193;51.032;6.356;2023-01-06T01:43:48;2.93;;;1.50;;
10295;SDS011;5193;51.032;6.356;2023-01-06T01:46:20;4.83;;;2.20;;
10295;SDS011;5193;51.032;6.356;2023-01-06T01:48:48;3.10;;;1.37;;
10295;SDS011;5193;51.032;6.356;2023-01-06T01:51:16;4.40;;;1.13;;
10295;SDS011;5193;51.032;6.356;2023-01-06T01:53:48;6.40;;;1.47;;
10295;SDS011;5193;51.032;6.356;2023-01-06T01:56:22;3.37;;;1.20;;
10295;SDS011;5193;51.032;6.356;2023-01-06T02:01:29;6.33;;;1.40;;
10295;SDS011;5193;51.032;6.356;2023-01-06T02:03:55;5.57;;;1.37;;
10295;SDS011;5193;51.032;6.356;2023-01-06T02:06:21;3.37;;;1.50;;
10295;SDS011;5193;51.032;6.356;2023-01-06T02:08:59;5.43;;;1.43;;
10295;SDS011;5193;51.032;6.356;2023-01-06T02:11:29;8.73;;;1.10;;
10295;SDS011;5193;51.032;6.356;2023-01-06T02:14:06;7.73;;;1.27;;
10295;SDS011;5193;51.032;6.356;2023-01-06T02:25:07;4.37;;;1.00;;
10295;SDS011;5193;51.032;6.356;2023-01-06T02:33:56;6.00;;;1.00;;
10295;SDS011;5193;51.032;6.356;2023-01-06T02:55:22;3.47;;;1.50;;
10295;SDS011;5193;51.032;6.356;2023-01-06T02:58:01;6.80;;;1.87;;
10295;SDS011;5193;51.032;6.356;2023-01-06T03:00:36;3.63;;;1.40;;
10295;SDS011;5193;51.032;6.356;2023-01-06T03:03:26;6.17;;;1.13;;
10295;SDS011;5193;51.032;6.356;2023-01-06T03:05:56;6.53;;;1.20;;
10295;SDS011;5193;51.032;6.356;2023-01-06T03:08:26;3.00;;;1.40;;
10295;SDS011;5193;51.032;6.356;2023-01-06T03:10:54;3.60;;;1.10;;
10295;SDS011;5193;51.032;6.356;2023-01-06T03:13:24;3.70;;;1.37;;
10295;SDS011;5193;51.032;6.356;2023-01-06T03:15:56;3.73;;;1.13;;
10295;SDS011;5193;51.032;6.356;2023-01-06T03:18:22;4.93;;;1.40;;
10295;SDS011;5193;51.032;6.356;2023-01-06T03:20:48;5.23;;;1.40;;
10295;SDS011;5193;51.032;6.356;2023-01-06T03:23:15;7.90;;;1.40;;
10295;SDS011;5193;51.032;6.356;2023-01-06T03:25:41;4.07;;;1.63;;
10295;SDS011;5193;51.032;6.356;2023-01-06T03:28:07;5.87;;;1.70;;
10295;SDS011;5193;51.032;6.356;2023-01-06T03:30:37;3.00;;;1.40;;
10295;SDS011;5193;51.032;6.356;2023-01-06T03:33:25;1.30;;;0.80;;
10295;SDS011;5193;51.032;6.356;2023-01-06T03:36:13;6.00;;;1.33;;
10295;SDS011;5193;51.032;6.356;2023-01-06T03:38:46;7.00;;;1.47;;
10295;SDS011;5193;51.032;6.356;2023-01-06T03:41:34;5.80;;;1.20;;
10295;SDS011;5193;51.032;6.356;2023-01-06T03:44:44;2.50;;;0.90;;
10295;SDS011;5193;51.032;6.356;2023-01-06T03:47:23;5.77;;;1.20;;
10295;SDS011;5193;51.032;6.356;2023-01-06T03:49:58;4.10;;;1.20;;
10295;SDS011;5193;51.032;6.356;2023-01-06T03:52:32;5.33;;;1.30;;
10295;SDS011;5193;51.032;6.356;2023-01-06T03:55:06;1.87;;;1.00;;
10295;SDS011;5193;51.032;6.356;2023-01-06T03:57:39;7.10;;;1.43;;
10295;SDS011;5193;51.032;6.356;2023-01-06T04:02:46;2.30;;;0.70;;
10295;SDS011;5193;51.032;6.356;2023-01-06T04:05:13;2.10;;;1.00;;
10295;SDS011;5193;51.032;6.356;2023-01-06T04:07:42;5.10;;;1.00;;
10295;SDS011;5193;51.032;6.356;2023-01-06T04:10:09;4.00;;;1.40;;
10295;SDS011;5193;51.032;6.356;2023-01-06T04:12:36;1.70;;;0.90;;
10295;SDS011;5193;51.032;6.356;2023-01-06T04:15:05;5.17;;;0.87;;
10295;SDS011;5193;51.032;6.356;2023-01-06T04:17:36;6.80;;;1.07;;
10295;SDS011;5193;51.032;6.356;2023-01-06T04:20:04;3.33;;;0.97;;
10295;SDS011;5193;51.032;6.356;2023-01-06T04:22:30;3.27;;;1.07;;
10295;SDS011;5193;51.032;6.356;2023-01-06T04:24:56;4.60;;;1.10;;
10295;SDS011;5193;51.032;6.356;2023-01-06T04:27:21;2.57;;;1.03;;
10295;SDS011;5193;51.032;6.356;2023-01-06T04:29:47;3.73;;;1.00;;
10295;SDS011;5193;51.032;6.356;2023-01-06T04:32:13;5.27;;;0.90;;
10295;SDS011;5193;51.032;6.356;2023-01-06T04:34:38;4.17;;;0.90;;
10295;SDS011;5193;51.032;6.356;2023-01-06T04:37:04;9.37;;;1.40;;
10295;SDS011;5193;51.032;6.356;2023-01-06T04:39:29;2.97;;;1.53;;
10295;SDS011;5193;51.032;6.356;2023-01-06T04:41:55;3.13;;;0.80;;
10295;SDS011;5193;51.032;6.356;2023-01-06T04:44:20;1.63;;;0.87;;
10295;SDS011;5193;51.032;6.356;2023-01-06T04:46:46;2.60;;;1.10;;
10295;SDS011;5193;51.032;6.356;2023-01-06T04:49:12;4.00;;;0.90;;
10295;SDS011;5193;51.032;6.356;2023-01-06T04:51:38;1.83;;;1.13;;
10295;SDS011;5193;51.032;6.356;2023-01-06T04:54:04;5.10;;;1.30;;
10295;SDS011;5193;51.032;6.356;2023-01-06T04:56:30;2.30;;;0.90;;
10295;SDS011;5193;51.032;6.356;2023-01-06T04:58:56;2.47;;;0.80;;
10295;SDS011;5193;51.032;6.356;2023-01-06T05:01:22;4.87;;;0.90;;
10295;SDS011;5193;51.032;6.356;2023-01-06T05:03:48;1.33;;;0.70;;
10295;SDS011;5193;51.032;6.356;2023-01-06T05:06:15;1.17;;;0.87;;
10295;SDS011;5193;51.032;6.356;2023-01-06T05:08:41;4.10;;;1.10;;
10295;SDS011;5193;51.032;6.356;2023-01-06T05:11:09;3.10;;;0.67;;
10295;SDS011;5193;51.032;6.356;2023-01-06T05:13:45;3.17;;;0.90;;
10295;SDS011;5193;51.032;6.356;2023-01-06T05:16:11;1.77;;;0.73;;
10295;SDS011;5193;51.032;6.356;2023-01-06T05:18:43;1.13;;;0.90;;
10295;SDS011;5193;51.032;6.356;2023-01-06T05:21:08;3.23;;;1.20;;
10295;SDS011;5193;51.032;6.356;2023-01-06T05:23:35;3.53;;;1.03;;
10295;SDS011;5193;51.032;6.356;2023-01-06T05:26:01;2.20;;;1.00;;
10295;SDS011;5193;51.032;6.356;2023-01-06T05:28:27;1.50;;;1.00;;
10295;SDS011;5193;51.032;6.356;2023-01-06T05:31:03;1.33;;;0.80;;
10295;SDS011;5193;51.032;6.356;2023-01-06T05:33:30;2.53;;;1.00;;
10295;SDS011;5193;51.032;6.356;2023-01-06T05:36:02;0.83;;;0.73;;
10295;SDS011;5193;51.032;6.356;2023-01-06T05:38:33;3.70;;;0.93;;
10295;SDS011;5193;51.032;6.356;2023-01-06T05:40:59;4.70;;;0.90;;
10295;SDS011;5193;51.032;6.356;2023-01-06T05:43:26;3.87;;;1.23;;
10295;SDS011;5193;51.032;6.356;2023-01-06T05:45:52;1.90;;;0.77;;
10295;SDS011;5193;51.032;6.356;2023-01-06T05:48:19;1.83;;;0.93;;
10295;SDS011;5193;51.032;6.356;2023-01-06T05:50:47;3.40;;;1.07;;
10295;SDS011;5193;51.032;6.356;2023-01-06T05:53:13;3.17;;;0.97;;
10295;SDS011;5193;51.032;6.356;2023-01-06T05:55:38;7.77;;;1.00;;
10295;SDS011;5193;51.032;6.356;2023-01-06T05:58:04;3.57;;;0.87;;
10295;SDS011;5193;51.032;6.356;2023-01-06T06:00:29;2.77;;;0.80;;
10295;SDS011;5193;51.032;6.356;2023-01-06T06:02:55;3.03;;;0.93;;
10295;SDS011;5193;51.032;6.356;2023-01-06T06:05:20;2.33;;;1.00;;
10295;SDS011;5193;51.032;6.356;2023-01-06T06:07:51;1.27;;;0.80;;
10295;SDS011;5193;51.032;6.356;2023-01-06T06:10:20;3.37;;;1.00;;
10295;SDS011;5193;51.032;6.356;2023-01-06T06:12:46;1.97;;;0.70;;
10295;SDS011;5193;51.032;6.356;2023-01-06T06:15:12;2.90;;;0.73;;
10295;SDS011;5193;51.032;6.356;2023-01-06T06:17:37;2.43;;;0.70;;
10295;SDS011;5193;51.032;6.356;2023-01-06T06:20:03;2.10;;;0.70;;
10295;SDS011;5193;51.032;6.356;2023-01-06T06:22:29;2.47;;;1.10;;
10295;SDS011;5193;51.032;6.356;2023-01-06T06:24:54;2.47;;;0.70;;
10295;SDS011;5193;51.032;6.356;2023-01-06T06:27:20;0.73;;;0.70;;
10295;SDS011;5193;51.032;6.356;2023-01-06T06:29:45;4.00;;;1.13;;
10295;SDS011;5193;51.032;6.356;2023-01-06T06:32:11;2.77;;;0.80;;
10295;SDS011;5193;51.032;6.356;2023-01-06T06:34:36;0.70;;;0.70;;
10295;SDS011;5193;51.032;6.356;2023-01-06T06:37:02;0.93;;;0.60;;
10295;SDS011;5193;51.032;6.356;2023-01-06T06:39:27;2.23;;;0.87;;
10295;SDS011;5193;51.032;6.356;2023-01-06T06:41:53;1.87;;;0.77;;
10295;SDS011;5193;51.032;6.356;2023-01-06T06:44:19;2.27;;;0.97;;
10295;SDS011;5193;51.032;6.356;2023-01-06T06:46:44;3.30;;;0.90;;
10295;SDS011;5193;51.032;6.356;2023-01-06T06:49:10;1.53;;;0.97;;
10295;SDS011;5193;51.032;6.356;2023-01-06T06:51:35;2.30;;;1.07;;
10295;SDS011;5193;51.032;6.356;2023-01-06T06:54:01;1.60;;;0.87;;
10295;SDS011;5193;51.032;6.356;2023-01-06T06:56:27;4.00;;;1.00;;
10295;SDS011;5193;51.032;6.356;2023-01-06T06:58:53;2.20;;;0.73;;
10295;SDS011;5193;51.032;6.356;2023-01-06T07:01:19;2.70;;;0.90;;
10295;SDS011;5193;51.032;6.356;2023-01-06T07:03:45;0.80;;;0.70;;
10295;SDS011;5193;51.032;6.356;2023-01-06T07:06:15;1.73;;;0.90;;
10295;SDS011;5193;51.032;6.356;2023-01-06T07:08:44;1.23;;;0.60;;
10295;SDS011;5193;51.032;6.356;2023-01-06T07:11:10;0.57;;;0.57;;
10295;SDS011;5193;51.032;6.356;2023-01-06T07:13:36;1.80;;;0.80;;
10295;SDS011;5193;51.032;6.356;2023-01-06T07:16:03;2.37;;;0.80;;
10295;SDS011;5193;51.032;6.356;2023-01-06T07:18:29;1.53;;;0.80;;
10295;SDS011;5193;51.032;6.356;2023-01-06T07:20:55;3.90;;;0.80;;
10295;SDS011;5193;51.032;6.356;2023-01-06T07:23:21;1.03;;;0.60;;
10295;SDS011;5193;51.032;6.356;2023-01-06T07:25:50;0.67;;;0.63;;
10295;SDS011;5193;51.032;6.356;2023-01-06T07:28:17;1.03;;;0.60;;
10295;SDS011;5193;51.032;6.356;2023-01-06T07:30:42;0.70;;;0.63;;
10295;SDS011;5193;51.032;6.356;2023-01-06T07:33:08;2.13;;;0.80;;
10295;SDS011;5193;51.032;6.356;2023-01-06T07:35:34;1.20;;;0.63;;
10295;SDS011;5193;51.032;6.356;2023-01-06T07:38:03;1.17;;;0.60;;
10295;SDS011;5193;51.032;6.356;2023-01-06T07:40:29;1.03;;;0.50;;
10295;SDS011;5193;51.032;6.356;2023-01-06T07:42:55;0.90;;;0.50;;
10295;SDS011;5193;51.032;6.356;2023-01-06T07:45:21;2.10;;;0.63;;
10295;SDS011;5193;51.032;6.356;2023-01-06T07:47:46;0.50;;;0.50;;
10295;SDS011;5193;51.032;6.356;2023-01-06T07:50:12;1.50;;;0.63;;
10295;SDS011;5193;51.032;6.356;2023-01-06T07:52:37;0.60;;;0.60;;
10295;SDS011;5193;51.032;6.356;2023-01-06T07:55:03;2.27;;;0.80;;
10295;SDS011;5193;51.032;6.356;2023-01-06T07:57:29;0.50;;;0.50;;
10295;SDS011;5193;51.032;6.356;2023-01-06T07:59:54;5.87;;;0.77;;
10295;SDS011;5193;51.032;6.356;2023-01-06T08:02:21;1.17;;;0.60;;
10295;SDS011;5193;51.032;6.356;2023-01-06T08:04:47;2.53;;;0.60;;
10295;SDS011;5193;51.032;6.356;2023-01-06T08:07:13;0.50;;;0.40;;
10295;SDS011;5193;51.032;6.356;2023-01-06T08:09:40;0.67;;;0.60;;
10295;SDS011;5193;51.032;6.356;2023-01-06T08:12:06;3.40;;;0.57;;
10295;SDS011;5193;51.032;6.356;2023-01-06T08:14:31;0.60;;;0.50;;
10295;SDS011;5193;51.032;6.356;2023-01-06T08:16:57;1.63;;;0.70;;
10295;SDS011;5193;51.032;6.356;2023-01-06T08:19:22;0.60;;;0.60;;
10295;SDS011;5193;51.032;6.356;2023-01-06T08:21:48;2.30;;;0.80;;
10295;SDS011;5193;51.032;6.356;2023-01-06T08:24:13;0.73;;;0.60;;
10295;SDS011;5193;51.032;6.356;2023-01-06T08:26:39;2.33;;;0.80;;
10295;SDS011;5193;51.032;6.356;2023-01-06T08:29:05;0.50;;;0.40;;
10295;SDS011;5193;51.032;6.356;2023-01-06T08:31:31;0.53;;;0.40;;
10295;SDS011;5193;51.032;6.356;2023-01-06T08:33:56;1.17;;;0.50;;
10295;SDS011;5193;51.032;6.356;2023-01-06T08:36:22;0.50;;;0.50;;
10295;SDS011;5193;51.032;6.356;2023-01-06T08:38:48;1.83;;;0.60;;
10295;SDS011;5193;51.032;6.356;2023-01-06T08:41:14;2.67;;;0.70;;
10295;SDS011;5193;51.032;6.356;2023-01-06T08:43:40;0.77;;;0.60;;
10295;SDS011;5193;51.032;6.356;2023-01-06T08:46:09;0.87;;;0.50;;
10295;SDS011;5193;51.032;6.356;2023-01-06T08:48:37;1.97;;;0.70;;
10295;SDS011;5193;51.032;6.356;2023-01-06T08:51:03;0.63;;;0.60;;
10295;SDS011;5193;51.032;6.356;2023-01-06T08:53:31;2.03;;;0.70;;
10295;SDS011;5193;51.032;6.356;2023-01-06T08:55:57;3.10;;;0.50;;
10295;SDS011;5193;51.032;6.356;2023-01-06T08:58:23;0.67;;;0.50;;
10295;SDS011;5193;51.032;6.356;2023-01-06T09:00:49;2.83;;;0.63;;
10295;SDS011;5193;51.032;6.356;2023-01-06T09:03:14;0.90;;;0.50;;
10295;SDS011;5193;51.032;6.356;2023-01-06T09:05:40;0.83;;;0.60;;
10295;SDS011;5193;51.032;6.356;2023-01-06T09:08:05;0.70;;;0.53;;
10295;SDS011;5193;51.032;6.356;2023-01-06T09:10:31;4.50;;;0.47;;
10295;SDS011;5193;51.032;6.356;2023-01-06T09:12:56;0.67;;;0.50;;
10295;SDS011;5193;51.032;6.356;2023-01-06T09:15:22;0.47;;;0.40;;
10295;SDS011;5193;51.032;6.356;2023-01-06T09:17:48;0.57;;;0.50;;
10295;SDS011;5193;51.032;6.356;2023-01-06T09:20:13;1.00;;;0.40;;
10295;SDS011;5193;51.032;6.356;2023-01-06T09:22:39;1.20;;;0.60;;
10295;SDS011;5193;51.032;6.356;2023-01-06T09:25:05;0.50;;;0.50;;
10295;SDS011;5193;51.032;6.356;2023-01-06T09:27:30;1.77;;;0.60;;
10295;SDS011;5193;51.032;6.356;2023-01-06T09:29:56;1.87;;;0.50;;
10295;SDS011;5193;51.032;6.356;2023-01-06T09:32:22;0.50;;;0.50;;
10295;SDS011;5193;51.032;6.356;2023-01-06T09:34:48;0.97;;;0.47;;
10295;SDS011;5193;51.032;6.356;2023-01-06T09:37:13;0.60;;;0.60;;
10295;SDS011;5193;51.032;6.356;2023-01-06T09:39:39;1.10;;;0.60;;
10295;SDS011;5193;51.032;6.356;2023-01-06T09:45:00;2.50;;;0.50;;
10295;SDS011;5193;51.032;6.356;2023-01-06T09:47:31;1.03;;;0.50;;
10295;SDS011;5193;51.032;6.356;2023-01-06T09:50:05;2.87;;;0.53;;
10295;SDS011;5193;51.032;6.356;2023-01-06T09:52:48;0.40;;;0.40;;
10295;SDS011;5193;51.032;6.356;2023-01-06T09:55:36;0.63;;;0.47;;
10295;SDS011;5193;51.032;6.356;2023-01-06T09:58:16;1.10;;;0.50;;
10295;SDS011;5193;51.032;6.356;2023-01-06T10:00:46;0.77;;;0.73;;
10295;SDS011;5193;51.032;6.356;2023-01-06T10:03:17;0.70;;;0.67;;
10295;SDS011;5193;51.032;6.356;2023-01-06T10:22:48;1.13;;;0.60;;
10295;SDS011;5193;51.032;6.356;2023-01-06T10:28:10;2.27;;;0.80;;
10295;SDS011;5193;51.032;6.356;2023-01-06T10:30:43;1.30;;;0.60;;
10295;SDS011;5193;51.032;6.356;2023-01-06T10:33:19;2.20;;;0.60;;
10295;SDS011;5193;51.032;6.356;2023-01-06T10:35:47;0.63;;;0.60;;
10295;SDS011;5193;51.032;6.356;2023-01-06T10:38:13;3.97;;;0.63;;
10295;SDS011;5193;51.032;6.356;2023-01-06T10:40:40;1.13;;;0.90;;
10295;SDS011;5193;51.032;6.356;2023-01-06T10:43:10;3.00;;;0.70;;
10295;SDS011;5193;51.032;6.356;2023-01-06T10:48:11;2.77;;;1.00;;
10295;SDS011;5193;51.032;6.356;2023-01-06T10:50:42;1.13;;;0.70;;
10295;SDS011;5193;51.032;6.356;2023-01-06T10:53:08;1.83;;;0.90;;
10295;SDS011;5193;51.032;6.356;2023-01-06T10:58:16;1.23;;;0.80;;
10295;SDS011;5193;51.032;6.356;2023-01-06T11:00:55;4.00;;;1.03;;
10295;SDS011;5193;51.032;6.356;2023-01-06T11:03:40;1.40;;;1.10;;
10295;SDS011;5193;51.032;6.356;2023-01-06T11:06:15;1.20;;;1.00;;
10295;SDS011;5193;51.032;6.356;2023-01-06T11:08:48;1.00;;;0.90;;
10295;SDS011;5193;51.032;6.356;2023-01-06T11:11:14;1.10;;;1.00;;
10295;SDS011;5193;51.032;6.356;2023-01-06T11:13:51;1.10;;;0.90;;
10295;SDS011;5193;51.032;6.356;2023-01-06T11:16:24;2.23;;;1.20;;
10295;SDS011;5193;51.032;6.356;2023-01-06T11:19:00;3.67;;;1.50;;
10295;SDS011;5193;51.032;6.356;2023-01-06T11:21:41;1.50;;;1.20;;
10295;SDS011;5193;51.032;6.356;2023-01-06T11:24:19;0.97;;;0.90;;
10295;SDS011;5193;51.032;6.356;2023-01-06T11:27:34;3.13;;;0.90;;
10295;SDS011;5193;51.032;6.356;2023-01-06T11:29:40;3.17;;;1.17;;
10295;SDS011;5193;51.032;6.356;2023-01-06T11:32:14;4.30;;;1.20;;
10295;SDS011;5193;51.032;6.356;2023-01-06T11:34:54;1.70;;;1.10;;
10295;SDS011;5193;51.032;6.356;2023-01-06T11:37:32;0.73;;;0.67;;
10295;SDS011;5193;51.032;6.356;2023-01-06T11:39:58;0.80;;;0.80;;
10295;SDS011;5193;51.032;6.356;2023-01-06T11:42:25;1.40;;;0.87;;
10295;SDS011;5193;51.032;6.356;2023-01-06T11:44:51;2.23;;;1.03;;
10295;SDS011;5193;51.032;6.356;2023-01-06T11:47:21;1.37;;;0.93;;
10295;SDS011;5193;51.032;6.356;2023-01-06T11:49:59;0.90;;;0.90;;
10295;SDS011;5193;51.032;6.356;2023-01-06T11:52:26;1.10;;;1.00;;
10295;SDS011;5193;51.032;6.356;2023-01-06T12:00:49;1.70;;;1.27;;
10295;SDS011;5193;51.032;6.356;2023-01-06T12:03:34;1.70;;;1.10;;
10295;SDS011;5193;51.032;6.356;2023-01-06T12:13:48;1.47;;;1.27;;
10295;SDS011;5193;51.032;6.356;2023-01-06T12:16:22;3.13;;;1.80;;
10295;SDS011;5193;51.032;6.356;2023-01-06T12:19:03;1.63;;;0.93;;
10295;SDS011;5193;51.032;6.356;2023-01-06T12:21:40;1.20;;;1.10;;
10295;SDS011;5193;51.032;6.356;2023-01-06T12:24:06;2.47;;;0.90;;
10295;SDS011;5193;51.032;6.356;2023-01-06T12:26:38;1.43;;;1.00;;
10295;SDS011;5193;51.032;6.356;2023-01-06T12:29:04;2.03;;;1.10;;
10295;SDS011;5193;51.032;6.356;2023-01-06T12:31:52;0.80;;;0.80;;
10295;SDS011;5193;51.032;6.356;2023-01-06T12:34:39;1.00;;;0.90;;
10295;SDS011;5193;51.032;6.356;2023-01-06T12:43:15;1.73;;;1.20;;
10295;SDS011;5193;51.032;6.356;2023-01-06T12:46:04;1.97;;;0.97;;
10295;SDS011;5193;51.032;6.356;2023-01-06T12:59:49;1.67;;;1.10;;
10295;SDS011;5193;51.032;6.356;2023-01-06T13:02:18;1.63;;;1.03;;
10295;SDS011;5193;51.032;6.356;2023-01-06T13:07:29;1.93;;;1.20;;
10295;SDS011;5193;51.032;6.356;2023-01-06T13:12:53;0.90;;;0.90;;
10295;SDS011;5193;51.032;6.356;2023-01-06T13:15:35;0.70;;;0.70;;
10295;SDS011;5193;51.032;6.356;2023-01-06T13:18:23;1.43;;;1.13;;
10295;SDS011;5193;51.032;6.356;2023-01-06T13:21:03;0.90;;;0.90;;
10295;SDS011;5193;51.032;6.356;2023-01-06T13:26:25;0.70;;;0.70;;
10295;SDS011;5193;51.032;6.356;2023-01-06T13:29:01;3.77;;;1.07;;
10295;SDS011;5193;51.032;6.356;2023-01-06T13:37:19;2.67;;;1.10;;
10295;SDS011;5193;51.032;6.356;2023-01-06T13:42:19;1.03;;;0.90;;
10295;SDS011;5193;51.032;6.356;2023-01-06T13:44:54;1.17;;;0.93;;
10295;SDS011;5193;51.032;6.356;2023-01-06T13:47:20;0.80;;;0.80;;
10295;SDS011;5193;51.032;6.356;2023-01-06T13:49:46;0.97;;;0.80;;
10295;SDS011;5193;51.032;6.356;2023-01-06T13:52:17;0.93;;;0.90;;
10295;SDS011;5193;51.032;6.356;2023-01-06T13:57:21;0.80;;;0.80;;
10295;SDS011;5193;51.032;6.356;2023-01-06T13:59:55;0.90;;;0.80;;
10295;SDS011;5193;51.032;6.356;2023-01-06T14:10:42;1.07;;;0.90;;
10295;SDS011;5193;51.032;6.356;2023-01-06T14:15:55;1.57;;;0.93;;
10295;SDS011;5193;51.032;6.356;2023-01-06T14:23:36;0.97;;;0.90;;
10295;SDS011;5193;51.032;6.356;2023-01-06T14:26:12;0.80;;;0.80;;
10295;SDS011;5193;51.032;6.356;2023-01-06T14:28:38;1.07;;;1.00;;
10295;SDS011;5193;51.032;6.356;2023-01-06T14:33:52;1.80;;;1.07;;
10295;SDS011;5193;51.032;6.356;2023-01-06T14:36:21;0.70;;;0.70;;
10295;SDS011;5193;51.032;6.356;2023-01-06T14:38:48;0.60;;;0.60;;
10295;SDS011;5193;51.032;6.356;2023-01-06T14:41:39;2.43;;;0.80;;
10295;SDS011;5193;51.032;6.356;2023-01-06T14:44:12;2.80;;;0.70;;
10295;SDS011;5193;51.032;6.356;2023-01-06T14:46:44;0.60;;;0.60;;
10295;SDS011;5193;51.032;6.356;2023-01-06T14:49:25;0.83;;;0.80;;
10295;SDS011;5193;51.032;6.356;2023-01-06T14:52:17;0.73;;;0.70;;
10295;SDS011;5193;51.032;6.356;2023-01-06T14:54:45;1.00;;;0.60;;
10295;SDS011;5193;51.032;6.356;2023-01-06T15:00:18;1.20;;;0.67;;
10295;SDS011;5193;51.032;6.356;2023-01-06T15:02:52;0.90;;;0.90;;
10295;SDS011;5193;51.032;6.356;2023-01-06T15:05:29;4.20;;;1.10;;
10295;SDS011;5193;51.032;6.356;2023-01-06T15:07:57;2.60;;;1.00;;
10295;SDS011;5193;51.032;6.356;2023-01-06T15:10:32;0.70;;;0.70;;
10295;SDS011;5193;51.032;6.356;2023-01-06T15:13:00;1.43;;;0.70;;
10295;SDS011;5193;51.032;6.356;2023-01-06T15:17:56;1.20;;;0.70;;
10295;SDS011;5193;51.032;6.356;2023-01-06T15:20:34;1.13;;;0.90;;
10295;SDS011;5193;51.032;6.356;2023-01-06T15:23:05;1.53;;;1.00;;
10295;SDS011;5193;51.032;6.356;2023-01-06T15:25:32;0.97;;;0.87;;
10295;SDS011;5193;51.032;6.356;2023-01-06T15:28:01;1.83;;;0.80;;
10295;SDS011;5193;51.032;6.356;2023-01-06T15:30:28;1.40;;;0.90;;
10295;SDS011;5193;51.032;6.356;2023-01-06T15:32:58;0.77;;;0.57;;
10295;SDS011;5193;51.032;6.356;2023-01-06T15:35:26;1.57;;;0.77;;
10295;SDS011;5193;51.032;6.356;2023-01-06T15:38:03;1.60;;;0.83;;
10295;SDS011;5193;51.032;6.356;2023-01-06T15:40:35;1.77;;;1.30;;
10295;SDS011;5193;51.032;6.356;2023-01-06T15:43:05;0.93;;;0.67;;
10295;SDS011;5193;51.032;6.356;2023-01-06T15:45:31;1.10;;;1.00;;
10295;SDS011;5193;51.032;6.356;2023-01-06T15:47:59;1.10;;;0.90;;
10295;SDS011;5193;51.032;6.356;2023-01-06T15:50:27;2.87;;;1.00;;
10295;SDS011;5193;51.032;6.356;2023-01-06T15:52:59;1.00;;;1.00;;
10295;SDS011;5193;51.032;6.356;2023-01-06T15:55:36;1.20;;;1.10;;
10295;SDS011;5193;51.032;6.356;2023-01-06T15:58:07;1.33;;;1.23;;
10295;SDS011;5193;51.032;6.356;2023-01-06T16:00:50;1.43;;;1.10;;
10295;SDS011;5193;51.032;6.356;2023-01-06T16:03:23;3.33;;;1.00;;
10295;SDS011;5193;51.032;6.356;2023-01-06T16:05:50;1.53;;;0.90;;
10295;SDS011;5193;51.032;6.356;2023-01-06T16:08:27;0.87;;;0.87;;
10295;SDS011;5193;51.032;6.356;2023-01-06T16:13:41;3.27;;;1.97;;
10295;SDS011;5193;51.032;6.356;2023-01-06T16:18:39;5.40;;;0.90;;
10295;SDS011;5193;51.032;6.356;2023-01-06T16:21:13;2.80;;;1.60;;
10295;SDS011;5193;51.032;6.356;2023-01-06T16:23:52;1.10;;;1.00;;
10295;SDS011;5193;51.032;6.356;2023-01-06T16:26:21;1.00;;;0.90;;
10295;SDS011;5193;51.032;6.356;2023-01-06T16:28:58;1.97;;;1.47;;
10295;SDS011;5193;51.032;6.356;2023-01-06T16:36:46;1.40;;;0.90;;
10295;SDS011;5193;51.032;6.356;2023-01-06T16:39:12;1.10;;;1.00;;
10295;SDS011;5193;51.032;6.356;2023-01-06T16:41:40;1.00;;;0.90;;
10295;SDS011;5193;51.032;6.356;2023-01-06T16:44:24;1.00;;;0.90;;
10295;SDS011;5193;51.032;6.356;2023-01-06T16:46:54;1.00;;;1.00;;
10295;SDS011;5193;51.032;6.356;2023-01-06T16:49:20;1.07;;;0.87;;
10295;SDS011;5193;51.032;6.356;2023-01-06T16:51:46;0.83;;;0.80;;
10295;SDS011;5193;51.032;6.356;2023-01-06T16:54:13;2.13;;;1.23;;
10295;SDS011;5193;51.032;6.356;2023-01-06T16:56:42;1.30;;;1.10;;
10295;SDS011;5193;51.032;6.356;2023-01-06T16:59:10;1.77;;;1.00;;
10295;SDS011;5193;51.032;6.356;2023-01-06T17:01:38;2.33;;;1.07;;
10295;SDS011;5193;51.032;6.356;2023-01-06T17:04:03;1.10;;;1.00;;
10295;SDS011;5193;51.032;6.356;2023-01-06T17:06:30;2.03;;;0.90;;
10295;SDS011;5193;51.032;6.356;2023-01-06T17:08:58;2.70;;;1.20;;
10295;SDS011;5193;51.032;6.356;2023-01-06T17:11:26;1.93;;;1.40;;
10295;SDS011;5193;51.032;6.356;2023-01-06T17:14:01;1.70;;;1.40;;
10295;SDS011;5193;51.032;6.356;2023-01-06T17:16:34;1.90;;;1.50;;
10295;SDS011;5193;51.032;6.356;2023-01-06T17:21:47;1.30;;;1.20;;
10295;SDS011;5193;51.032;6.356;2023-01-06T17:24:17;1.87;;;1.37;;
10295;SDS011;5193;51.032;6.356;2023-01-06T17:26:48;2.67;;;1.60;;
10295;SDS011;5193;51.032;6.356;2023-01-06T17:29:22;1.50;;;1.20;;
10295;SDS011;5193;51.032;6.356;2023-01-06T17:31:49;2.63;;;1.23;;
10295;SDS011;5193;51.032;6.356;2023-01-06T17:34:51;1.57;;;1.17;;
10295;SDS011;5193;51.032;6.356;2023-01-06T17:37:12;2.83;;;2.30;;
10295;SDS011;5193;51.032;6.356;2023-01-06T17:39:42;2.77;;;1.83;;
10295;SDS011;5193;51.032;6.356;2023-01-06T17:44:39;2.77;;;1.93;;
10295;SDS011;5193;51.032;6.356;2023-01-06T17:47:11;3.30;;;1.70;;
10295;SDS011;5193;51.032;6.356;2023-01-06T17:49:57;2.20;;;2.00;;
10295;SDS011;5193;51.032;6.356;2023-01-06T17:54:56;2.10;;;1.80;;